FXMM/MSU METAR and TAF weather

Enter ICAO airport designator
Station Type Date Time Source
FXMM METAR 2022/01/22 12:00 UTC NOAA

FXMM 221200Z 36006KT 9999 FEW035 26/03 Q1028 NOSIG


Station Type Date Time Source
FXMM Decoded METAR 2022/01/22 12:00 UTC NOAA

Maseru / Moshoeshoe, Lesotho (FXMM) 29-27S 027-33E
Jan 22, 2022 - 07:00 AM EST / 2022.01.22 1200 UTC
Wind: from the N (360 degrees) at 7 MPH (6 KT):0
Visibility: greater than 7 mile(s):0
Sky conditions: mostly clear
Temperature: 78 F (26 C)
Dew Point: 37 F (3 C)
Relative Humidity: 22%
Pressure (altimeter): 30.36 in. Hg (1028 hPa)
ob: FXMM 221200Z 36006KT 9999 FEW035 26/03 Q1028 NOSIG
cycle: 12

Station Type Date Time Source
FXMM TAF 2021/08/15 09:42 UTC NOAA

TAF TAF FXMM 150600Z 1509/1521 VRB02KT 9999 FEW035 SCT035
BECMG 1510/1512 34010KT

Example: see airport list